Time;durP1;ratioP1;P1;durP2;ratioP2;P2;SDS_P1;SDS_P2;PMS_P1;PMS_P2;Temp;Humidity;BMP_temperature;BMP_pressure;BME280_temperature;BME280_humidity;BME280_pressure;Samples;Min_cycle;Max_cycle;Signal;HPM_P1;HPM_P2
2023/09/17 00:01:28;;;;;;;92.28;51.47;;;;;;;20.25;100.00;101254.63;5190829;28;20033;-79
2023/09/17 00:04:00;;;;;;;94.20;49.45;;;;;;;20.24;100.00;101254.88;5188890;28;20061;-79
2023/09/17 00:06:31;;;;;;;87.07;47.63;;;;;;;20.24;100.00;101247.53;5194742;28;20108;-79
2023/09/17 00:09:03;;;;;;;96.80;51.53;;;;;;;20.25;100.00;101245.63;5185545;28;20117;-79
2023/09/17 00:11:34;;;;;;;103.60;54.58;;;;;;;20.25;100.00;101248.34;5199366;28;20108;-80
2023/09/17 00:14:04;;;;;;;104.28;53.42;;;;;;;20.23;100.00;101243.13;5186801;28;20476;-79
2023/09/17 00:16:38;;;;;;;106.00;52.97;;;;;;;20.25;100.00;101246.47;5190946;28;20112;-79
2023/09/17 00:19:09;;;;;;;89.60;49.95;;;;;;;20.22;100.00;101244.16;5186109;28;20026;-79
2023/09/17 00:21:39;;;;;;;99.90;51.60;;;;;;;20.24;100.00;101241.25;5187345;28;20735;-79
2023/09/17 00:24:10;;;;;;;89.03;49.05;;;;;;;20.21;100.00;101242.50;5198369;28;20052;-79
2023/09/17 00:26:40;;;;;;;87.57;48.60;;;;;;;20.19;100.00;101233.72;5197440;28;20059;-79
2023/09/17 00:29:10;;;;;;;84.13;47.20;;;;;;;20.18;100.00;101240.19;5193868;28;20030;-79
2023/09/17 00:31:43;;;;;;;91.28;48.88;;;;;;;20.15;100.00;101233.31;5192860;28;20036;-78
2023/09/17 00:34:13;;;;;;;87.00;47.50;;;;;;;20.15;100.00;101235.22;5188993;28;20096;-79
2023/09/17 00:36:45;;;;;;;87.43;48.00;;;;;;;20.14;100.00;101230.84;5186340;28;20052;-79
2023/09/17 00:39:15;;;;;;;86.07;45.22;;;;;;;20.13;100.00;101223.69;5186798;28;20080;-79
2023/09/17 00:41:46;;;;;;;76.72;45.30;;;;;;;20.10;100.00;101216.81;5194942;28;20029;-79
2023/09/17 00:44:16;;;;;;;76.95;43.35;;;;;;;20.11;100.00;101214.91;5190984;28;20026;-79
2023/09/17 00:46:47;;;;;;;74.13;42.92;;;;;;;20.10;100.00;101213.25;5187346;28;20041;-80
2023/09/17 00:49:18;;;;;;;72.75;41.45;;;;;;;20.09;100.00;101211.59;5185678;28;20025;-79
2023/09/17 00:51:48;;;;;;;74.10;41.67;;;;;;;20.05;100.00;101208.47;5190546;28;20028;-80
2023/09/17 00:54:22;;;;;;;71.38;42.90;;;;;;;20.05;100.00;101215.81;5187689;28;20053;-79
2023/09/17 00:56:54;;;;;;;77.13;44.15;;;;;;;20.03;100.00;101210.59;5187371;28;20084;-80
2023/09/17 00:59:25;;;;;;;69.28;39.53;;;;;;;20.01;100.00;101217.28;5189300;28;20044;-79
2023/09/17 01:01:56;;;;;;;71.18;40.50;;;;;;;20.00;100.00;101219.19;5191179;28;20025;-78
2023/09/17 01:04:27;;;;;;;68.07;39.13;;;;;;;20.01;100.00;101218.13;5202715;28;20391;-80
2023/09/17 01:07:01;;;;;;;;;;;;;;;20.01;100.00;101220.84;5194325;28;20514;-79
2023/09/17 01:09:33;;;;;;;66.68;37.97;;;;;;;20.03;100.00;101223.34;5189861;28;19957;-79
2023/09/17 01:12:12;;;;;;;61.53;36.42;;;;;;;20.05;100.00;101213.06;5190746;28;20044;-79
2023/09/17 01:14:48;;;;;;;66.60;37.72;;;;;;;20.05;100.00;101221.25;5189635;28;20096;-79
2023/09/17 01:17:19;;;;;;;67.18;38.20;;;;;;;20.01;100.00;101220.00;5196004;28;20132;-79
2023/09/17 01:19:53;;;;;;;68.00;39.13;;;;;;;20.02;100.00;101214.34;5192316;28;20025;-79
2023/09/17 01:22:32;;;;;;;67.38;36.45;;;;;;;20.01;100.00;101218.13;5198130;28;20026;-80
2023/09/17 01:25:07;;;;;;;72.22;42.88;;;;;;;19.99;100.00;101208.53;5191589;28;20101;-80
2023/09/17 01:27:44;;;;;;;64.70;38.35;;;;;;;19.98;100.00;101204.09;5195407;28;20030;-79
2023/09/17 01:30:34;;;;;;;69.72;38.33;;;;;;;19.96;100.00;101207.06;5165160;28;20025;-79
2023/09/17 01:33:09;;;;;;;69.75;41.90;;;;;;;19.94;100.00;101213.78;5188131;28;20054;-79
2023/09/17 01:36:01;;;;;;;70.47;38.40;;;;;;;19.94;100.00;101211.91;5197040;28;20025;-79
2023/09/17 01:38:38;;;;;;;75.57;42.63;;;;;;;19.94;100.00;101214.63;5189083;28;20515;-79
2023/09/17 01:41:09;;;;;;;66.78;40.00;;;;;;;19.97;100.00;101213.31;5191952;28;20422;-80
2023/09/17 01:43:40;;;;;;;61.10;36.00;;;;;;;19.95;100.00;101219.00;5200766;28;20034;-79
2023/09/17 01:46:11;;;;;;;67.95;40.95;;;;;;;19.94;100.00;101213.78;5192338;28;20487;-79
2023/09/17 01:48:42;;;;;;;69.88;40.80;;;;;;;19.91;100.00;101215.03;5186931;28;20025;-80
2023/09/17 01:51:13;;;;;;;70.95;40.55;;;;;;;19.88;100.00;101212.75;5195679;28;20506;-78
2023/09/17 01:53:45;;;;;;;65.47;38.60;;;;;;;19.86;100.00;101212.16;5190919;28;20040;-80
2023/09/17 01:56:17;;;;;;;61.15;36.30;;;;;;;19.82;100.00;101209.00;5188553;28;20022;-80
2023/09/17 01:58:48;;;;;;;65.85;37.70;;;;;;;19.84;100.00;101212.38;5189754;28;20030;-80
2023/09/17 02:01:19;;;;;;;58.42;34.63;;;;;;;19.84;100.00;101211.53;5190561;28;20476;-81
2023/09/17 02:03:49;;;;;;;62.13;37.63;;;;;;;19.84;100.00;101217.00;5194515;28;20628;-81
2023/09/17 02:06:20;;;;;;;71.07;41.67;;;;;;;19.85;100.00;101224.09;5175960;28;20018;-80
2023/09/17 02:08:51;;;;;;;79.80;42.10;;;;;;;19.86;100.00;101217.59;5195622;28;20025;-80
2023/09/17 02:11:22;;;;;;;64.30;38.13;;;;;;;19.83;100.00;101210.72;5194629;28;20488;-81
2023/09/17 02:13:53;;;;;;;75.43;43.28;;;;;;;19.83;100.00;101223.47;5200487;28;20021;-80
2023/09/17 02:16:24;;;;;;;62.38;36.00;;;;;;;19.82;100.00;101211.75;5199163;28;20025;-80
2023/09/17 02:18:55;;;;;;;60.67;34.83;;;;;;;19.79;100.00;101211.38;5196917;28;20104;-81
2023/09/17 02:21:26;;;;;;;54.45;32.40;;;;;;;19.78;100.00;101212.38;5197301;28;20101;-81
2023/09/17 02:23:56;;;;;;;66.65;38.30;;;;;;;19.75;100.00;101215.56;5190358;28;20037;-81
2023/09/17 02:26:27;;;;;;;62.42;36.17;;;;;;;19.73;100.00;101213.06;5195355;28;20017;-81
2023/09/17 02:28:58;;;;;;;61.40;37.92;;;;;;;19.72;100.00;101208.66;5173919;28;20034;-80
2023/09/17 02:31:29;;;;;;;67.75;37.38;;;;;;;19.73;100.00;101207.63;5195161;28;20031;-80
2023/09/17 02:34:00;;;;;;;71.80;40.33;;;;;;;19.72;100.00;101197.78;5197175;28;20029;-80
2023/09/17 02:36:30;;;;;;;63.13;36.75;;;;;;;19.70;100.00;101207.22;5198845;28;20025;-80
2023/09/17 02:39:02;;;;;;;60.20;37.33;;;;;;;19.67;100.00;101203.88;5189670;28;20099;-80
2023/09/17 02:41:33;;;;;;;60.85;38.38;;;;;;;19.66;100.00;101195.94;5197651;28;20021;-80
2023/09/17 02:44:03;;;;;;;63.10;37.35;;;;;;;19.65;100.00;101192.38;5198084;28;20369;-80
2023/09/17 02:46:34;;;;;;;68.20;39.53;;;;;;;19.63;100.00;101182.78;5197946;28;20084;-80
2023/09/17 02:49:05;;;;;;;70.05;40.63;;;;;;;19.62;100.00;101184.63;5194835;28;21029;-80
2023/09/17 02:51:35;;;;;;;69.18;38.35;;;;;;;19.61;100.00;101182.97;5200227;28;20032;-80
2023/09/17 02:54:06;;;;;;;74.65;41.33;;;;;;;19.59;100.00;101185.09;5190142;28;20396;-80
2023/09/17 02:56:36;;;;;;;68.90;38.47;;;;;;;19.57;100.00;101180.88;5198327;28;20021;-80
2023/09/17 02:59:06;;;;;;;68.05;38.85;;;;;;;19.55;100.00;101183.81;5195534;28;20168;-80
2023/09/17 03:01:38;;;;;;;67.47;37.97;;;;;;;19.54;100.00;101178.59;5191081;28;20515;-80
2023/09/17 03:04:09;;;;;;;62.92;38.45;;;;;;;19.52;100.00;101184.22;5186249;28;20034;-80
2023/09/17 03:06:39;;;;;;;64.28;37.72;;;;;;;19.53;100.00;101185.06;5197503;28;20036;-80
2023/09/17 03:09:11;;;;;;;74.35;39.00;;;;;;;19.53;100.00;101183.22;5197382;28;20030;-80
2023/09/17 03:11:41;;;;;;;67.97;36.95;;;;;;;19.52;100.00;101178.78;5191114;28;20021;-81
2023/09/17 03:14:12;;;;;;;69.75;39.45;;;;;;;19.54;100.00;101175.88;5195967;28;20036;-80
2023/09/17 03:16:43;;;;;;;69.22;39.78;;;;;;;19.55;100.00;101172.09;5190453;28;20112;-81
2023/09/17 03:19:14;;;;;;;64.75;38.92;;;;;;;19.53;100.00;101171.47;5191874;28;20029;-80
2023/09/17 03:21:45;;;;;;;64.45;39.22;;;;;;;19.52;100.00;101167.06;5190661;28;20159;-79
2023/09/17 03:24:16;;;;;;;64.13;38.83;;;;;;;19.52;100.00;101172.53;5193800;28;20380;-80
2023/09/17 03:26:47;;;;;;;66.88;39.00;;;;;;;19.55;100.00;101166.66;5193280;28;20029;-80
2023/09/17 03:29:17;;;;;;;61.08;35.28;;;;;;;19.56;100.00;101169.16;5193338;28;20070;-80
2023/09/17 03:31:48;;;;;;;67.20;38.78;;;;;;;19.56;100.00;101173.75;5194397;28;20395;-82
2023/09/17 03:34:18;;;;;;;63.28;38.33;;;;;;;19.53;100.00;101174.19;5190931;28;20059;-80
2023/09/17 03:36:49;;;;;;;65.45;39.38;;;;;;;19.53;100.00;101176.91;5199910;28;20037;-80
2023/09/17 03:39:19;;;;;;;61.25;34.92;;;;;;;19.50;100.00;101167.31;5194668;28;20112;-80
2023/09/17 03:41:50;;;;;;;76.95;41.65;;;;;;;19.47;100.00;101159.56;5192718;28;20495;-80
2023/09/17 03:44:21;;;;;;;68.07;37.70;;;;;;;19.46;100.00;101163.34;5189616;28;20108;-80
2023/09/17 03:46:51;;;;;;;67.57;40.22;;;;;;;19.48;100.00;101168.56;5182015;28;20025;-80
2023/09/17 03:49:24;;;;;;;66.80;39.42;;;;;;;19.48;100.00;101171.28;5196253;28;20030;-80
2023/09/17 03:51:55;;;;;;;66.45;37.67;;;;;;;19.49;100.00;101170.25;5186264;28;20056;-80
2023/09/17 03:54:25;;;;;;;60.13;36.22;;;;;;;19.47;100.00;101165.00;5196928;28;20026;-82
2023/09/17 03:56:56;;;;;;;61.25;35.47;;;;;;;19.47;100.00;101166.91;5192236;28;20284;-80
2023/09/17 03:59:26;;;;;;;68.15;37.45;;;;;;;19.44;100.00;101157.28;5192827;28;20028;-81
2023/09/17 04:01:57;;;;;;;62.08;36.35;;;;;;;19.39;100.00;101162.56;5193805;28;20028;-80
2023/09/17 04:04:28;;;;;;;59.15;36.38;;;;;;;19.35;100.00;101153.97;5175297;28;20022;-80
2023/09/17 04:06:59;;;;;;;67.50;38.05;;;;;;;19.32;100.00;101151.69;5196656;28;20033;-80
2023/09/17 04:09:30;;;;;;;60.03;35.58;;;;;;;19.31;100.00;101160.06;5195924;28;20025;-80
2023/09/17 04:12:04;;;;;;;67.97;39.10;;;;;;;19.28;100.00;101144.19;5190776;28;20029;-80
2023/09/17 04:14:34;;;;;;;65.47;38.92;;;;;;;19.29;100.00;101152.13;5190568;28;20659;-80
2023/09/17 04:17:05;;;;;;;67.05;38.92;;;;;;;19.28;100.00;101155.91;5195863;28;20029;-81
2023/09/17 04:19:36;;;;;;;64.13;33.65;;;;;;;19.29;100.00;101154.03;5193225;28;20404;-80
2023/09/17 04:22:07;;;;;;;72.93;42.65;;;;;;;19.30;100.00;101158.41;5192315;28;20029;-80
2023/09/17 04:24:38;;;;;;;78.90;44.22;;;;;;;19.33;100.00;101152.53;5189994;28;20041;-80
2023/09/17 04:27:09;;;;;;;82.10;44.45;;;;;;;19.33;100.00;101147.94;5195988;28;20025;-80
2023/09/17 04:29:39;;;;;;;71.60;42.50;;;;;;;19.35;100.00;101151.25;5194821;28;20063;-80
2023/09/17 04:32:10;;;;;;;77.40;43.65;;;;;;;19.33;100.00;101142.50;5189711;28;20044;-80
2023/09/17 04:34:40;;;;;;;78.50;44.75;;;;;;;19.34;100.00;101151.50;5191693;28;20033;-81
2023/09/17 04:37:11;;;;;;;74.15;42.35;;;;;;;19.31;100.00;101150.03;5196337;28;21862;-81
2023/09/17 04:39:42;;;;;;;64.28;40.40;;;;;;;19.32;100.00;101150.84;5194595;28;20022;-81
2023/09/17 04:42:13;;;;;;;74.53;43.88;;;;;;;19.32;100.00;101151.69;5193347;28;20028;-80
2023/09/17 04:44:43;;;;;;;73.13;42.33;;;;;;;19.33;100.00;101153.38;5196890;28;20420;-79
2023/09/17 04:47:14;;;;;;;81.72;43.58;;;;;;;19.34;100.00;101163.19;5188156;28;20021;-80
2023/09/17 04:49:44;;;;;;;77.65;44.03;;;;;;;19.35;100.00;101167.59;5192493;28;20109;-80
2023/09/17 04:52:15;;;;;;;71.25;42.58;;;;;;;19.38;100.00;101161.72;5189262;28;20014;-80
2023/09/17 04:54:45;;;;;;;77.07;41.53;;;;;;;19.40;100.00;101161.50;5196905;28;20499;-81
2023/09/17 04:57:16;;;;;;;72.00;41.22;;;;;;;19.40;100.00;101153.34;5180330;28;20076;-80
2023/09/17 04:59:46;;;;;;;69.97;42.03;;;;;;;19.41;100.00;101155.81;5192298;28;20044;-80
2023/09/17 05:02:17;;;;;;;77.45;43.55;;;;;;;19.41;100.00;101146.84;5186809;28;20108;-80
2023/09/17 05:04:48;;;;;;;92.43;46.83;;;;;;;19.41;100.00;101142.22;5196011;28;20395;-80
2023/09/17 05:07:19;;;;;;;72.38;41.75;;;;;;;19.37;100.00;101135.53;5189439;28;20017;-80
2023/09/17 05:09:49;;;;;;;85.57;43.83;;;;;;;19.29;100.00;101146.69;5200254;28;20028;-80
2023/09/17 05:12:20;;;;;;;67.70;37.97;;;;;;;19.23;100.00;101150.28;5196686;28;20029;-80
2023/09/17 05:14:50;;;;;;;68.13;40.92;;;;;;;19.21;100.00;101149.66;5190989;28;20037;-81
2023/09/17 05:17:21;;;;;;;65.53;38.03;;;;;;;19.19;100.00;101154.47;5192560;28;20025;-81
2023/09/17 05:19:52;;;;;;;85.93;44.33;;;;;;;19.21;100.00;101159.69;5196935;28;20403;-78
2023/09/17 05:22:22;;;;;;;90.70;45.35;;;;;;;19.21;100.00;101160.53;5194811;28;20017;-81
2023/09/17 05:24:53;;;;;;;78.25;40.95;;;;;;;19.26;100.00;101163.44;5195950;28;20025;-81
2023/09/17 05:27:24;;;;;;;65.68;37.55;;;;;;;19.28;100.00;101172.22;5187325;28;20175;-80
2023/09/17 05:29:55;;;;;;;76.30;42.90;;;;;;;19.29;100.00;101168.44;5191251;28;20075;-80
2023/09/17 05:32:25;;;;;;;91.60;47.63;;;;;;;19.33;100.00;101168.88;5192267;28;20395;-80
2023/09/17 05:34:58;;;;;;;73.57;41.20;;;;;;;19.34;100.00;101176.81;5194086;28;20034;-80
2023/09/17 05:37:28;;;;;;;76.60;42.08;;;;;;;19.35;100.00;101177.63;5185958;28;20406;-80
2023/09/17 05:39:59;;;;;;;82.80;46.97;;;;;;;19.34;100.00;101181.41;5192271;28;20116;-80
2023/09/17 05:42:31;;;;;;;80.05;44.30;;;;;;;19.33;100.00;101182.47;5195910;28;20037;-80
2023/09/17 05:45:01;;;;;;;80.55;43.25;;;;;;;19.31;100.00;101185.38;5197166;28;20021;-81
2023/09/17 05:47:32;;;;;;;83.15;44.42;;;;;;;19.30;100.00;101175.56;5194760;28;20022;-80
2023/09/17 05:50:03;;;;;;;68.47;38.58;;;;;;;19.32;100.00;101189.75;5199657;28;20116;-81
2023/09/17 05:52:34;;;;;;;88.13;44.20;;;;;;;19.33;100.00;101185.19;5199505;28;20033;-80
2023/09/17 05:55:04;;;;;;;81.93;45.83;;;;;;;19.33;100.00;101196.06;5180522;28;20033;-80
2023/09/17 05:57:35;;;;;;;80.18;43.50;;;;;;;19.31;100.00;101198.97;5204211;28;20037;-80
2023/09/17 06:00:07;;;;;;;80.30;42.58;;;;;;;19.30;100.00;101194.59;5197918;28;20092;-80
2023/09/17 06:02:38;;;;;;;90.43;46.53;;;;;;;19.32;100.00;101195.19;5184259;28;20025;-81
2023/09/17 06:05:09;;;;;;;90.47;45.33;;;;;;;19.34;100.00;101184.97;5191825;28;20529;-80
2023/09/17 06:07:39;;;;;;;82.10;44.35;;;;;;;19.39;100.00;101178.88;5178372;28;20037;-80
2023/09/17 06:10:10;;;;;;;102.47;48.80;;;;;;;19.48;100.00;101182.16;5196183;28;20029;-80
2023/09/17 06:12:41;;;;;;;89.65;45.13;;;;;;;19.60;100.00;101184.03;5198514;28;20029;-80
2023/09/17 06:15:11;;;;;;;82.43;44.22;;;;;;;19.73;100.00;101179.53;5191906;28;20025;-79
2023/09/17 06:17:42;;;;;;;80.65;44.35;;;;;;;19.87;100.00;101186.59;5190147;28;20033;-80
2023/09/17 06:20:12;;;;;;;75.70;42.38;;;;;;;19.98;100.00;101177.72;5191390;28;20028;-80
2023/09/17 06:22:45;;;;;;;89.57;47.05;;;;;;;20.05;100.00;101174.94;5189952;28;20045;-80
2023/09/17 06:25:15;;;;;;;77.47;43.20;;;;;;;20.10;100.00;101172.41;5194161;28;20031;-80
2023/09/17 06:27:46;;;;;;;78.80;43.00;;;;;;;20.11;100.00;101172.16;5181208;28;20038;-79
2023/09/17 06:30:17;;;;;;;79.63;42.55;;;;;;;20.14;100.00;101168.19;5193185;28;20477;-80
2023/09/17 06:32:48;;;;;;;95.05;45.28;;;;;;;20.14;100.00;101165.47;5183896;28;20049;-80
2023/09/17 06:35:19;;;;;;;73.78;40.35;;;;;;;20.17;100.00;101174.00;5194517;28;20033;-80
2023/09/17 06:37:49;;;;;;;70.40;39.03;;;;;;;20.21;100.00;101171.69;5195498;28;20041;-81
2023/09/17 06:40:20;;;;;;;72.43;39.65;;;;;;;20.24;100.00;101176.69;5192465;28;20491;-80
2023/09/17 06:42:51;;;;;;;77.15;42.75;;;;;;;20.29;100.00;101178.75;5195489;28;20038;-80
2023/09/17 06:45:22;;;;;;;81.32;42.03;;;;;;;20.31;100.00;101182.06;5190094;28;20014;-80
2023/09/17 06:47:52;;;;;;;73.18;39.25;;;;;;;20.34;100.00;101189.81;5194962;28;20042;-80
2023/09/17 06:50:23;;;;;;;71.55;38.88;;;;;;;20.31;100.00;101185.63;5193518;28;20104;-82
2023/09/17 06:52:53;;;;;;;71.70;41.20;;;;;;;20.29;100.00;101189.66;5203718;28;20536;-81
2023/09/17 06:55:24;;;;;;;73.07;39.08;;;;;;;20.28;100.00;101186.09;5195171;28;20029;-81
2023/09/17 06:57:54;;;;;;;76.95;40.47;;;;;;;20.25;100.00;101200.16;5197535;28;20136;-80
2023/09/17 07:00:25;;;;;;;72.60;40.90;;;;;;;20.23;100.00;101191.38;5198793;28;20029;-80
2023/09/17 07:02:55;;;;;;;75.28;41.15;;;;;;;20.22;100.00;101191.56;5195440;28;20033;-81
2023/09/17 07:05:26;;;;;;;72.55;40.53;;;;;;;20.22;100.00;101184.22;5197873;28;20037;-81
2023/09/17 07:07:57;;;;;;;76.68;40.00;;;;;;;20.18;100.00;101189.31;5199053;28;20030;-81
2023/09/17 07:10:27;;;;;;;86.38;42.88;;;;;;;20.21;100.00;101188.03;5199984;28;20029;-82
2023/09/17 07:12:58;;;;;;;79.35;42.33;;;;;;;20.20;100.00;101191.81;5194339;28;20029;-81
2023/09/17 07:15:30;;;;;;;78.03;43.25;;;;;;;20.15;100.00;101197.91;5193930;28;20019;-81
2023/09/17 07:18:00;;;;;;;85.75;44.22;;;;;;;20.13;100.00;101200.03;5194289;28;20045;-81
2023/09/17 07:20:31;;;;;;;78.97;43.55;;;;;;;20.14;100.00;101206.31;5194217;28;20033;-80
2023/09/17 07:23:01;;;;;;;84.65;43.85;;;;;;;20.17;100.00;101198.50;5178998;28;20036;-80
2023/09/17 07:25:32;;;;;;;82.07;44.60;;;;;;;20.18;100.00;101202.94;5191442;28;20404;-80
2023/09/17 07:28:08;;;;;;;84.90;45.28;;;;;;;20.23;100.00;101202.28;5198447;28;20087;-80
2023/09/17 07:30:39;;;;;;;79.93;44.42;;;;;;;20.28;100.00;101187.97;5193510;28;20029;-80
2023/09/17 07:33:09;;;;;;;91.28;45.53;;;;;;;20.30;100.00;101191.31;5194981;28;20698;-81
2023/09/17 07:35:40;;;;;;;96.35;47.15;;;;;;;20.33;100.00;101199.88;5194790;28;20040;-80
2023/09/17 07:38:10;;;;;;;98.47;46.63;;;;;;;20.36;100.00;101199.41;5194851;28;20404;-80
2023/09/17 07:40:41;;;;;;;84.53;45.50;;;;;;;20.38;100.00;101196.47;5198741;28;20083;-81
2023/09/17 07:43:12;;;;;;;82.30;43.47;;;;;;;20.36;100.00;101198.59;5195462;28;20040;-81
2023/09/17 07:45:42;;;;;;;85.82;44.67;;;;;;;20.37;100.00;101200.25;5193929;28;20065;-80
2023/09/17 07:48:13;;;;;;;90.68;44.50;;;;;;;20.38;100.00;101201.91;5193506;28;20414;-81
2023/09/17 07:50:43;;;;;;;81.35;42.63;;;;;;;20.46;100.00;101209.00;5194222;28;20075;-81
2023/09/17 07:53:14;;;;;;;92.18;46.38;;;;;;;20.55;100.00;101208.53;5179479;28;20490;-82
2023/09/17 07:55:44;;;;;;;85.20;44.88;;;;;;;20.66;100.00;101210.50;5191827;28;20045;-81
2023/09/17 07:58:15;;;;;;;89.05;46.25;;;;;;;20.73;100.00;101210.44;5195383;28;20036;-81
2023/09/17 08:00:45;;;;;;;87.97;45.35;;;;;;;20.77;100.00;101205.38;5201712;28;20504;-82
2023/09/17 08:03:17;;;;;;;85.78;43.45;;;;;;;20.81;100.00;101210.16;5190644;28;20040;-81
2023/09/17 08:05:49;;;;;;;88.57;45.45;;;;;;;20.86;100.00;101214.94;5199309;28;20566;-82
2023/09/17 08:08:20;;;;;;;76.55;40.70;;;;;;;20.85;100.00;101214.09;5191059;28;20475;-82
2023/09/17 08:10:50;;;;;;;80.10;42.50;;;;;;;20.90;100.00;101213.44;5195640;28;20033;-81
2023/09/17 08:13:21;;;;;;;79.88;41.33;;;;;;;20.91;100.00;101223.28;5199777;28;20527;-81
2023/09/17 08:15:52;;;;;;;63.80;35.10;;;;;;;20.94;100.00;101220.09;5195283;28;20033;-81
2023/09/17 08:18:23;;;;;;;66.45;35.20;;;;;;;20.91;100.00;101218.66;5195112;28;20490;-82
2023/09/17 08:20:53;;;;;;;63.53;33.20;;;;;;;20.99;100.00;101217.53;5193643;28;20393;-81
2023/09/17 08:23:24;;;;;;;57.28;32.03;;;;;;;21.01;100.00;101220.03;5191388;28;20391;-81
2023/09/17 08:25:54;;;;;;;51.60;29.15;;;;;;;21.05;100.00;101223.97;5199918;28;20034;-81
2023/09/17 08:28:25;;;;;;;53.95;27.27;;;;;;;21.21;100.00;101234.28;5194927;28;20443;-81
2023/09/17 08:30:55;;;;;;;55.90;27.52;;;;;;;21.32;100.00;101233.53;5203849;28;20075;-81
2023/09/17 08:33:26;;;;;;;46.67;25.88;;;;;;;21.37;100.00;101238.31;5193945;28;20025;-81
2023/09/17 08:35:56;;;;;;;42.75;24.60;;;;;;;21.36;100.00;101240.22;5196086;28;20037;-82
2023/09/17 08:38:27;;;;;;;43.65;24.13;;;;;;;21.38;100.00;101234.53;5180657;28;20037;-81
2023/09/17 08:40:58;;;;;;;35.45;21.20;;;;;;;21.34;100.00;101241.53;5185278;28;20112;-81
2023/09/17 08:43:28;;;;;;;40.78;23.35;;;;;;;21.34;100.00;101236.91;5197927;28;20021;-82
2023/09/17 08:46:01;;;;;;;43.40;24.02;;;;;;;21.36;100.00;101239.41;5194095;28;20044;-81
2023/09/17 08:48:31;;;;;;;44.75;24.20;;;;;;;21.27;100.00;101240.72;5195749;28;20032;-81
2023/09/17 08:51:03;;;;;;;38.47;23.38;;;;;;;21.34;100.00;101238.81;5198857;28;20037;-81
2023/09/17 08:53:39;;;;;;;42.45;24.65;;;;;;;21.44;100.00;101237.19;5194479;28;20017;-80
2023/09/17 08:56:16;;;;;;;42.55;24.80;;;;;;;21.49;100.00;101235.66;5196654;28;20018;-80
2023/09/17 08:58:55;;;;;;;47.67;25.02;;;;;;;21.52;100.00;101232.47;5194124;28;20026;-81
2023/09/17 09:01:25;;;;;;;40.65;22.27;;;;;;;21.51;100.00;101237.09;5193515;28;20097;-80
2023/09/17 09:03:56;;;;;;;39.28;22.40;;;;;;;21.47;100.00;101230.44;5193295;28;20043;-81
2023/09/17 09:06:29;;;;;;;35.13;20.02;;;;;;;21.59;100.00;101228.63;5196829;28;20025;-82
2023/09/17 09:09:00;;;;;;;37.88;20.52;;;;;;;21.68;100.00;101227.22;5176486;28;20033;-81
2023/09/17 09:11:39;;;;;;;33.90;18.00;;;;;;;21.84;100.00;101227.63;5193785;28;20032;-81
2023/09/17 09:14:10;;;;;;;31.58;16.17;;;;;;;21.83;100.00;101225.97;5197483;28;20049;-81
2023/09/17 09:16:40;;;;;;;27.63;15.82;;;;;;;21.90;100.00;101219.34;5190633;28;20037;-81
2023/09/17 09:19:11;;;;;;;26.52;15.30;;;;;;;22.01;100.00;101219.63;5202508;28;20033;-82
2023/09/17 09:21:42;;;;;;;27.67;16.60;;;;;;;21.97;100.00;101224.72;5198574;28;20026;-82
2023/09/17 09:24:12;;;;;;;26.20;15.30;;;;;;;21.99;100.00;101225.34;5206175;28;20057;-81
2023/09/17 09:26:44;;;;;;;21.65;13.93;;;;;;;21.77;100.00;101230.47;5205290;28;20026;-81
2023/09/17 09:29:14;;;;;;;23.05;14.07;;;;;;;21.85;100.00;101243.81;5198891;28;20021;-81
2023/09/17 09:31:46;;;;;;;25.33;13.43;;;;;;;21.78;100.00;101243.03;5202192;28;20037;-80
2023/09/17 09:34:18;;;;;;;24.15;14.23;;;;;;;21.80;100.00;101246.41;5198715;28;20021;-81
2023/09/17 09:36:51;;;;;;;24.67;13.80;;;;;;;22.00;100.00;101240.66;5204289;28;20093;-80
2023/09/17 09:39:22;;;;;;;20.60;12.63;;;;;;;22.22;100.00;101243.72;5196259;28;20084;-80
2023/09/17 09:41:53;;;;;;;20.85;11.57;;;;;;;22.16;100.00;101240.00;5198645;28;20133;-81
2023/09/17 09:44:25;;;;;;;16.80;10.85;;;;;;;22.35;100.00;101237.22;5200987;28;20654;-81
2023/09/17 09:46:57;;;;;;;17.02;11.15;;;;;;;22.62;100.00;101234.88;5185035;28;20033;-81
2023/09/17 09:49:28;;;;;;;17.48;11.13;;;;;;;22.92;100.00;101229.31;5194618;28;20036;-82
2023/09/17 09:51:59;;;;;;;15.32;9.10;;;;;;;23.22;100.00;101223.69;5205948;28;20116;-81
2023/09/17 09:54:29;;;;;;;15.77;9.07;;;;;;;23.42;100.00;101224.09;5202631;28;20041;-81
2023/09/17 09:57:02;;;;;;;12.63;8.40;;;;;;;23.87;100.00;101223.38;5206338;28;20072;-82
2023/09/17 09:59:34;;;;;;;11.98;7.60;;;;;;;24.11;100.00;101226.84;5209636;28;20025;-82
2023/09/17 10:02:05;;;;;;;14.38;8.57;;;;;;;23.90;100.00;101222.91;5205253;28;20069;-82
2023/09/17 10:04:37;;;;;;;12.60;8.40;;;;;;;23.82;100.00;101223.28;5212210;28;20021;-81
2023/09/17 10:07:08;;;;;;;13.93;7.72;;;;;;;23.72;100.00;101225.81;5207421;28;20084;-82
2023/09/17 10:09:41;;;;;;;15.20;9.68;;;;;;;23.44;100.00;101223.84;5207343;28;20484;-81
2023/09/17 10:12:11;;;;;;;16.00;10.02;;;;;;;23.18;100.00;101208.81;5199906;28;20387;-81
2023/09/17 10:14:42;;;;;;;20.58;11.10;;;;;;;22.87;100.00;101210.84;5202839;28;20025;-80
2023/09/17 10:17:17;;;;;;;16.73;10.10;;;;;;;22.90;100.00;101207.66;5205016;28;20060;-81
2023/09/17 10:19:50;;;;;;;17.00;10.48;;;;;;;23.03;100.00;101205.75;5208058;28;20040;-81
2023/09/17 10:22:23;;;;;;;20.02;11.82;;;;;;;22.96;100.00;101212.19;5205990;28;20075;-81
2023/09/17 10:24:55;;;;;;;17.85;11.07;;;;;;;22.96;100.00;101214.09;5210330;28;20048;-81
2023/09/17 10:27:26;;;;;;;18.30;9.90;;;;;;;22.90;100.00;101217.78;5208099;28;20041;-81
2023/09/17 10:29:57;;;;;;;17.38;10.88;;;;;;;23.02;100.00;101213.13;5205557;28;20041;-81
2023/09/17 10:32:29;;;;;;;18.05;10.93;;;;;;;23.07;100.00;101217.88;5199376;28;20483;-81
2023/09/17 10:35:02;;;;;;;19.25;10.65;;;;;;;23.07;100.00;101212.41;5200190;28;20403;-80
2023/09/17 10:37:35;;;;;;;21.40;11.10;;;;;;;23.23;100.00;101211.66;5198013;28;20036;-80
2023/09/17 10:40:10;;;;;;;17.20;10.45;;;;;;;23.51;100.00;101206.22;5199441;28;20053;-81
2023/09/17 10:42:40;;;;;;;;;;;;;;;23.76;100.00;101218.78;5196541;28;20280;-82
2023/09/17 10:45:12;;;;;;;13.73;9.40;;;;;;;23.89;100.00;101215.72;5202491;28;19920;-81
2023/09/17 10:47:44;;;;;;;15.52;8.90;;;;;;;23.76;100.00;101216.06;5204194;28;20041;-81
2023/09/17 10:50:15;;;;;;;13.77;9.55;;;;;;;23.64;100.00;101215.25;5200404;28;20088;-81
2023/09/17 10:52:46;;;;;;;19.50;10.13;;;;;;;23.57;100.00;101215.38;5203419;28;20029;-80
2023/09/17 10:55:18;;;;;;;14.73;10.02;;;;;;;23.47;100.00;101207.78;5197916;28;20093;-80
2023/09/17 10:58:03;;;;;;;15.40;9.88;;;;;;;23.50;100.00;101212.78;5194243;28;20479;-80
2023/09/17 11:00:37;;;;;;;12.10;8.90;;;;;;;23.53;100.00;101215.03;5199125;28;20560;-80
2023/09/17 11:03:10;;;;;;;18.08;9.95;;;;;;;23.53;100.00;101205.97;5198870;28;20098;-79
2023/09/17 11:05:43;;;;;;;14.52;9.35;;;;;;;23.69;100.00;101215.34;5201742;28;20021;-79
2023/09/17 11:08:15;;;;;;;13.07;9.10;;;;;;;23.72;100.00;101206.66;5192024;28;20034;-79
2023/09/17 11:10:46;;;;;;;15.95;9.13;;;;;;;23.75;100.00;101217.97;5189523;28;20040;-80
2023/09/17 11:13:17;;;;;;;13.30;8.23;;;;;;;23.75;100.00;101214.41;5195185;28;20034;-80
2023/09/17 11:15:50;;;;;;;13.38;8.60;;;;;;;23.78;100.00;101209.22;5192015;28;20536;-80
2023/09/17 11:18:21;;;;;;;14.75;8.52;;;;;;;24.04;100.00;101204.22;5190726;28;20410;-80
2023/09/17 11:21:00;;;;;;;15.60;8.52;;;;;;;24.39;100.00;101219.66;5193898;28;20036;-80